createdAt,value
2022-07-28T00:03:34.208Z,1.65
2022-07-28T00:08:31.481Z,2.00
2022-07-28T00:13:28.839Z,1.20
2022-07-28T00:18:25.122Z,1.85
2022-07-28T00:23:21.365Z,1.63
2022-07-28T00:28:17.617Z,1.50
2022-07-28T00:33:13.843Z,1.40
2022-07-28T00:38:10.095Z,1.73
2022-07-28T00:43:07.723Z,1.48
2022-07-28T00:48:04.180Z,1.70
2022-07-28T00:53:01.162Z,1.70
2022-07-28T00:57:57.653Z,1.52
2022-07-28T01:02:54.090Z,1.58
2022-07-28T01:07:57.810Z,1.48
2022-07-28T01:13:12.963Z,1.67
2022-07-28T01:18:17.439Z,3.08
2022-07-28T01:23:31.946Z,2.42
2022-07-28T01:28:35.970Z,2.53
2022-07-28T01:33:38.120Z,2.00
2022-07-28T01:38:35.089Z,2.45
2022-07-28T01:43:33.274Z,2.42
2022-07-28T01:48:30.924Z,2.33
2022-07-28T01:53:27.812Z,1.83
2022-07-28T01:58:30.496Z,1.50
2022-07-28T02:03:28.904Z,1.80
2022-07-28T02:08:25.461Z,1.73
2022-07-28T02:13:21.753Z,1.98
2022-07-28T02:18:19.183Z,1.88
2022-07-28T02:23:15.640Z,1.88
2022-07-28T02:28:12.023Z,1.60
2022-07-28T02:33:11.557Z,1.55
2022-07-28T02:38:11.934Z,2.10
2022-07-28T02:43:13.013Z,2.28
2022-07-28T02:48:11.645Z,1.75
2022-07-28T02:53:15.291Z,1.90
2022-07-28T02:58:12.665Z,1.40
2022-07-28T03:03:09.716Z,1.23
2022-07-28T03:08:06.085Z,1.30
2022-07-28T03:13:07.083Z,1.92
2022-07-28T03:18:04.297Z,1.20
2022-07-28T03:23:00.818Z,1.60
2022-07-28T03:27:58.045Z,1.70
2022-07-28T03:32:59.361Z,1.50
2022-07-28T03:38:11.373Z,1.55
2022-07-28T03:43:09.543Z,1.50
2022-07-28T03:48:06.349Z,1.27
2022-07-28T03:53:03.103Z,1.40
2022-07-28T03:57:59.439Z,1.63
2022-07-28T04:02:55.693Z,1.90
2022-07-28T04:07:51.957Z,1.70
2022-07-28T04:12:48.208Z,2.28
2022-07-28T04:17:48.490Z,1.73
2022-07-28T04:22:45.512Z,1.88
2022-07-28T04:27:42.353Z,1.48
2022-07-28T04:32:41.709Z,1.50
2022-07-28T04:37:38.908Z,1.98
2022-07-28T04:42:36.193Z,1.65
2022-07-28T04:47:32.585Z,1.75
2022-07-28T04:52:28.870Z,2.25
2022-07-28T04:57:27.982Z,1.77
2022-07-28T05:02:24.358Z,1.40
2022-07-28T05:07:20.611Z,2.40
2022-07-28T05:12:16.838Z,1.85
2022-07-28T05:17:13.352Z,1.90
2022-07-28T05:22:10.318Z,1.88
2022-07-28T05:27:07.000Z,1.88
2022-07-28T05:32:15.546Z,2.15
2022-07-28T05:37:13.903Z,1.58
2022-07-28T05:42:10.146Z,1.73
2022-07-28T05:47:06.691Z,1.50
2022-07-28T05:52:03.332Z,1.60
2022-07-28T05:56:59.593Z,1.30
2022-07-28T06:01:55.873Z,1.77
2022-07-28T06:06:52.183Z,1.27
2022-07-28T06:11:50.227Z,1.20
2022-07-28T06:16:50.977Z,1.55
2022-07-28T06:21:47.708Z,1.38
2022-07-28T06:26:45.102Z,1.25
2022-07-28T06:31:41.521Z,1.52
2022-07-28T06:36:37.794Z,1.70
2022-07-28T06:41:34.089Z,1.58
2022-07-28T06:46:31.761Z,1.50
2022-07-28T06:51:28.139Z,1.45
2022-07-28T06:56:24.468Z,1.65
2022-07-28T07:01:20.831Z,2.28
2022-07-28T07:06:17.184Z,1.30
2022-07-28T07:11:13.454Z,1.65
2022-07-28T07:16:10.362Z,1.65
2022-07-28T07:21:06.698Z,1.75
2022-07-28T07:26:03.325Z,1.83
2022-07-28T07:30:59.644Z,1.80
2022-07-28T07:35:56.160Z,1.77
2022-07-28T07:40:52.421Z,2.05
2022-07-28T07:45:48.735Z,2.00
2022-07-28T07:50:45.075Z,2.10
2022-07-28T07:55:41.342Z,1.80
2022-07-28T08:00:37.653Z,1.80
2022-07-28T08:05:35.063Z,2.00
2022-07-28T08:10:33.162Z,1.60
2022-07-28T08:15:29.673Z,2.03
2022-07-28T08:20:26.396Z,1.83
2022-07-28T08:25:23.488Z,2.17
2022-07-28T08:30:22.920Z,2.00
2022-07-28T08:35:33.117Z,1.83
2022-07-28T08:40:32.330Z,2.15
2022-07-28T08:45:29.066Z,1.85
2022-07-28T08:50:29.515Z,2.30
2022-07-28T08:55:32.115Z,2.53
2022-07-28T09:00:28.866Z,2.28
2022-07-28T09:05:25.477Z,2.42
2022-07-28T09:10:22.056Z,1.98
2022-07-28T09:15:18.470Z,2.80
2022-07-28T09:20:14.709Z,2.10
2022-07-28T09:25:20.039Z,2.20
2022-07-28T09:30:16.284Z,2.28
2022-07-28T09:35:19.645Z,3.75
2022-07-28T09:40:16.308Z,2.38
2022-07-28T09:45:22.821Z,1.80
2022-07-28T09:50:20.142Z,2.42
2022-07-28T09:55:16.507Z,2.72
2022-07-28T10:00:24.371Z,2.30
2022-07-28T10:05:38.466Z,2.40
2022-07-28T10:10:34.740Z,2.33
2022-07-28T10:15:50.957Z,2.47
2022-07-28T10:20:49.811Z,2.67
2022-07-28T10:25:46.216Z,2.90
2022-07-28T10:30:42.672Z,2.40
2022-07-28T10:35:54.267Z,2.47
2022-07-28T10:40:54.712Z,2.20
2022-07-28T10:46:08.860Z,1.77
2022-07-28T10:51:06.296Z,2.65
2022-07-28T10:56:04.883Z,2.50
2022-07-28T11:01:05.995Z,2.55
2022-07-28T11:06:21.361Z,2.40
2022-07-28T11:11:37.545Z,2.90
2022-07-28T11:16:36.746Z,2.83
2022-07-28T11:21:40.886Z,2.63
2022-07-28T11:26:38.109Z,2.53
2022-07-28T11:31:46.576Z,2.92
2022-07-28T11:36:57.866Z,3.58
2022-07-28T11:41:54.121Z,2.80
2022-07-28T11:46:52.699Z,2.47
2022-07-28T11:52:09.176Z,2.78
2022-07-28T11:57:07.507Z,2.80
2022-07-28T12:02:03.859Z,3.00
2022-07-28T12:07:02.026Z,2.55
2022-07-28T12:11:58.939Z,2.40
2022-07-28T12:16:55.662Z,2.45
2022-07-28T12:21:55.290Z,2.70
2022-07-28T12:26:51.832Z,3.05
2022-07-28T12:31:55.779Z,2.78
2022-07-28T12:36:52.993Z,3.10
2022-07-28T12:41:58.981Z,2.38
2022-07-28T12:46:55.229Z,2.95
2022-07-28T12:51:51.554Z,3.85
2022-07-28T12:56:48.755Z,3.78
2022-07-28T13:01:55.969Z,3.60
2022-07-28T13:06:56.466Z,3.08
2022-07-28T13:11:52.770Z,2.40
2022-07-28T13:16:58.764Z,2.20
2022-07-28T13:22:01.600Z,2.42
2022-07-28T13:27:01.266Z,2.60
2022-07-28T13:31:57.654Z,2.30
2022-07-28T13:36:54.105Z,2.60
2022-07-28T13:41:58.477Z,2.40
2022-07-28T13:46:56.103Z,2.75
2022-07-28T13:51:53.215Z,2.63
2022-07-28T13:56:49.571Z,2.15
2022-07-28T14:01:49.883Z,2.60
2022-07-28T14:06:46.656Z,2.78
2022-07-28T14:11:50.130Z,2.90
2022-07-28T14:16:50.331Z,2.30
2022-07-28T14:21:46.854Z,2.33
2022-07-28T14:26:43.150Z,2.63
2022-07-28T14:31:39.946Z,2.60
2022-07-28T14:36:36.811Z,2.70
2022-07-28T14:41:33.086Z,2.80
2022-07-28T14:46:29.512Z,2.22
2022-07-28T14:51:26.231Z,2.78
2022-07-28T14:56:22.556Z,2.97
2022-07-28T15:01:18.857Z,3.22
2022-07-28T15:06:15.133Z,2.67
2022-07-28T15:11:11.387Z,2.40
2022-07-28T15:16:07.728Z,2.72
2022-07-28T15:21:06.443Z,3.05
2022-07-28T15:26:02.777Z,2.80
2022-07-28T15:30:59.170Z,3.13
2022-07-28T15:35:59.675Z,2.63
2022-07-28T15:40:58.519Z,2.60
2022-07-28T15:45:55.266Z,2.67
2022-07-28T15:50:52.749Z,2.65
2022-07-28T15:55:51.488Z,2.80
2022-07-28T16:00:49.961Z,3.15
2022-07-28T16:05:49.435Z,2.72
2022-07-28T16:10:46.168Z,2.63
2022-07-28T16:15:42.441Z,2.80
2022-07-28T16:20:38.795Z,2.95
2022-07-28T16:25:35.204Z,2.97
2022-07-28T16:30:33.375Z,2.63
2022-07-28T16:35:35.330Z,3.15
2022-07-28T16:40:32.452Z,3.05
2022-07-28T16:45:29.999Z,2.97
2022-07-28T16:50:27.461Z,2.55
2022-07-28T16:55:26.560Z,2.80
2022-07-28T17:00:25.780Z,2.92
2022-07-28T17:05:22.139Z,2.83
2022-07-28T17:10:20.370Z,2.80
2022-07-28T17:15:20.018Z,2.83
2022-07-28T17:20:19.095Z,3.03
2022-07-28T17:25:44.524Z,2.70
2022-07-28T17:30:32.889Z,2.78
2022-07-28T17:35:31.649Z,3.30
2022-07-28T17:40:31.091Z,2.90
2022-07-28T17:45:27.448Z,2.78
2022-07-28T17:50:23.718Z,2.50
2022-07-28T17:55:57.674Z,2.53
2022-07-28T18:00:56.405Z,2.30
2022-07-28T18:05:52.706Z,2.40
2022-07-28T18:10:52.814Z,2.22
2022-07-28T18:15:49.717Z,3.10
2022-07-28T18:20:46.108Z,2.05
2022-07-28T18:25:45.231Z,2.30
2022-07-28T18:30:41.818Z,2.60
2022-07-28T18:35:38.330Z,2.60
2022-07-28T18:40:36.125Z,2.40
2022-07-28T18:45:32.417Z,2.40
2022-07-28T18:50:31.427Z,2.95
2022-07-28T18:55:28.085Z,2.28
2022-07-28T19:00:24.498Z,2.45
2022-07-28T19:05:20.791Z,2.63
2022-07-28T19:10:17.046Z,2.45
2022-07-28T19:15:13.376Z,2.40
2022-07-28T19:20:12.696Z,2.60
2022-07-28T19:25:09.305Z,2.35
2022-07-28T19:30:07.265Z,2.08
2022-07-28T19:35:03.813Z,2.35
2022-07-28T19:40:00.078Z,2.35
2022-07-28T19:44:56.378Z,2.97
2022-07-28T19:49:52.647Z,2.22
2022-07-28T19:54:51.299Z,2.22
2022-07-28T19:59:47.766Z,2.00
2022-07-28T20:04:44.011Z,2.30
2022-07-28T20:09:40.245Z,1.77
2022-07-28T20:14:36.561Z,2.03
2022-07-28T20:19:32.818Z,2.17
2022-07-28T20:24:29.153Z,2.50
2022-07-28T20:29:26.411Z,1.90
2022-07-28T20:34:22.967Z,1.83
2022-07-28T20:39:43.264Z,2.08
2022-07-28T20:44:35.821Z,1.80
2022-07-28T20:49:32.298Z,2.00
2022-07-28T20:54:28.575Z,1.70
2022-07-28T20:59:27.655Z,1.50
2022-07-28T21:04:24.851Z,1.92
2022-07-28T21:09:22.118Z,1.52
2022-07-28T21:14:18.986Z,1.58
2022-07-28T21:19:15.525Z,1.30
2022-07-28T21:24:12.194Z,1.60
2022-07-28T21:29:12.418Z,1.52
2022-07-28T21:34:09.499Z,1.33
2022-07-28T21:39:06.273Z,1.55
2022-07-28T21:44:04.198Z,1.65
2022-07-28T21:49:00.668Z,1.70
2022-07-28T21:53:57.984Z,1.60
2022-07-28T21:58:54.274Z,1.65
2022-07-28T22:03:50.784Z,1.30
2022-07-28T22:08:50.211Z,1.50
2022-07-28T22:13:46.556Z,1.10
2022-07-28T22:18:42.854Z,1.30
2022-07-28T22:23:40.180Z,1.33
2022-07-28T22:28:36.463Z,1.40
2022-07-28T22:33:32.707Z,1.20
2022-07-28T22:38:28.955Z,1.13
2022-07-28T22:43:25.247Z,1.38
2022-07-28T22:48:21.546Z,1.38
2022-07-28T22:53:17.823Z,1.10
2022-07-28T22:58:14.129Z,1.33
2022-07-28T23:03:13.072Z,1.00
2022-07-28T23:08:10.509Z,1.20
2022-07-28T23:13:07.240Z,1.20
2022-07-28T23:18:03.525Z,1.17
2022-07-28T23:22:59.792Z,0.90
2022-07-28T23:27:56.039Z,1.60
2022-07-28T23:32:52.944Z,1.17
2022-07-28T23:37:49.228Z,1.83
2022-07-28T23:42:45.456Z,0.95
2022-07-28T23:47:41.682Z,0.93
2022-07-28T23:52:37.965Z,1.33
2022-07-28T23:57:34.219Z,1.00
